createdAt,value
2022-07-28T00:00:44.113Z,4.93
2022-07-28T00:03:10.841Z,5.33
2022-07-28T00:05:37.624Z,6.23
2022-07-28T00:08:05.479Z,5.83
2022-07-28T00:10:32.472Z,6.30
2022-07-28T00:13:00.077Z,6.50
2022-07-28T00:15:27.820Z,6.57
2022-07-28T00:17:54.527Z,6.57
2022-07-28T00:20:21.480Z,6.90
2022-07-28T00:22:48.263Z,6.57
2022-07-28T00:25:15.368Z,6.37
2022-07-28T00:27:42.121Z,6.50
2022-07-28T00:30:10.165Z,6.87
2022-07-28T00:32:37.797Z,6.37
2022-07-28T00:35:05.184Z,6.33
2022-07-28T00:37:35.098Z,6.20
2022-07-28T00:40:02.391Z,7.07
2022-07-28T00:42:29.066Z,6.53
2022-07-28T00:44:55.748Z,7.10
2022-07-28T00:47:22.521Z,6.97
2022-07-28T00:49:50.437Z,6.67
2022-07-28T00:52:18.410Z,6.77
2022-07-28T00:54:45.171Z,6.73
2022-07-28T00:57:11.933Z,5.60
2022-07-28T00:59:38.645Z,6.13
2022-07-28T01:02:05.462Z,6.63
2022-07-28T01:04:32.490Z,6.93
2022-07-28T01:07:17.304Z,6.40
2022-07-28T01:10:13.870Z,5.97
2022-07-28T01:12:51.147Z,6.87
2022-07-28T01:15:29.175Z,6.67
2022-07-28T01:18:20.400Z,6.50
2022-07-28T01:20:49.904Z,6.53
2022-07-28T01:23:31.451Z,6.40
2022-07-28T01:26:34.067Z,6.57
2022-07-28T01:29:22.643Z,7.43
2022-07-28T01:31:59.789Z,6.60
2022-07-28T01:35:11.702Z,7.27
2022-07-28T01:37:51.902Z,7.13
2022-07-28T01:40:22.701Z,6.83
2022-07-28T01:42:54.245Z,6.47
2022-07-28T01:45:21.809Z,6.77
2022-07-28T01:47:50.020Z,7.17
2022-07-28T01:50:21.324Z,6.83
2022-07-28T01:52:49.925Z,6.23
2022-07-28T01:55:20.439Z,6.50
2022-07-28T01:57:49.253Z,6.20
2022-07-28T02:00:17.835Z,7.00
2022-07-28T02:02:46.980Z,6.37
2022-07-28T02:05:17.123Z,6.00
2022-07-28T02:07:49.538Z,5.93
2022-07-28T02:10:18.510Z,6.93
2022-07-28T02:12:48.813Z,6.27
2022-07-28T02:15:16.131Z,6.23
2022-07-28T02:17:47.060Z,5.90
2022-07-28T02:20:16.444Z,6.60
2022-07-28T02:22:45.515Z,7.27
2022-07-28T02:25:19.775Z,6.53
2022-07-28T02:27:58.495Z,6.03
2022-07-28T02:30:37.290Z,7.07
2022-07-28T02:33:24.439Z,6.80
2022-07-28T02:36:14.225Z,6.40
2022-07-28T02:38:46.648Z,7.57
2022-07-28T02:41:25.760Z,7.23
2022-07-28T02:43:56.841Z,7.30
2022-07-28T02:46:29.340Z,6.30
2022-07-28T02:49:03.126Z,7.63
2022-07-28T02:51:31.884Z,7.40
2022-07-28T02:53:59.673Z,6.73
2022-07-28T02:56:27.297Z,6.70
2022-07-28T02:58:54.956Z,6.87
2022-07-28T03:01:23.650Z,7.00
2022-07-28T03:03:50.997Z,6.77
2022-07-28T03:06:28.415Z,6.90
2022-07-28T03:08:56.406Z,6.67
2022-07-28T03:11:23.141Z,6.87
2022-07-28T03:13:49.801Z,6.00
2022-07-28T03:16:16.544Z,6.90
2022-07-28T03:18:43.230Z,6.70
2022-07-28T03:21:09.865Z,6.73
2022-07-28T03:23:45.738Z,6.53
2022-07-28T03:26:37.304Z,7.20
2022-07-28T03:29:04.282Z,6.37
2022-07-28T03:31:33.841Z,7.63
2022-07-28T03:34:00.694Z,7.13
2022-07-28T03:36:35.826Z,7.50
2022-07-28T03:39:06.417Z,8.23
2022-07-28T03:41:34.481Z,7.30
2022-07-28T03:44:02.766Z,8.17
2022-07-28T03:46:29.732Z,7.37
2022-07-28T03:48:56.508Z,7.40
2022-07-28T03:51:25.595Z,7.30
2022-07-28T03:53:52.312Z,7.70
2022-07-28T03:56:19.538Z,7.27
2022-07-28T03:58:46.230Z,7.20
2022-07-28T04:01:13.012Z,7.50
2022-07-28T04:03:44.042Z,8.40
2022-07-28T04:06:15.633Z,6.97
2022-07-28T04:08:44.144Z,6.93
2022-07-28T04:11:10.831Z,7.23
2022-07-28T04:13:37.611Z,7.50
2022-07-28T04:16:05.892Z,8.13
2022-07-28T04:18:33.063Z,8.30
2022-07-28T04:21:00.725Z,9.10
2022-07-28T04:23:28.276Z,9.67
2022-07-28T04:25:55.439Z,9.60
2022-07-28T04:28:22.281Z,8.80
2022-07-28T04:30:48.935Z,8.40
2022-07-28T04:33:15.846Z,8.00
2022-07-28T04:35:42.534Z,8.13
2022-07-28T04:38:09.233Z,8.47
2022-07-28T04:40:35.927Z,8.07
2022-07-28T04:43:04.064Z,7.77
2022-07-28T04:45:30.987Z,7.77
2022-07-28T04:47:57.746Z,9.00
2022-07-28T04:50:24.617Z,7.97
2022-07-28T04:52:51.292Z,7.97
2022-07-28T04:55:18.282Z,7.93
2022-07-28T04:57:45.137Z,8.30
2022-07-28T05:00:13.868Z,8.37
2022-07-28T05:02:42.001Z,8.03
2022-07-28T05:05:09.978Z,8.57
2022-07-28T05:07:38.300Z,8.27
2022-07-28T05:10:06.742Z,8.13
2022-07-28T05:12:33.411Z,8.67
2022-07-28T05:15:00.275Z,7.97
2022-07-28T05:17:27.361Z,8.77
2022-07-28T05:19:54.198Z,7.80
2022-07-28T05:22:20.878Z,7.80
2022-07-28T05:24:47.618Z,7.67
2022-07-28T05:27:14.316Z,8.07
2022-07-28T05:29:47.723Z,8.10
2022-07-28T05:32:17.023Z,8.30
2022-07-28T05:34:44.614Z,8.03
2022-07-28T05:37:11.364Z,7.73
2022-07-28T05:39:38.063Z,8.90
2022-07-28T05:42:04.948Z,7.77
2022-07-28T05:44:37.250Z,7.53
2022-07-28T05:47:04.894Z,7.33
2022-07-28T05:49:31.631Z,7.97
2022-07-28T05:51:58.280Z,7.37
2022-07-28T05:54:25.356Z,7.67
2022-07-28T05:56:52.737Z,7.43
2022-07-28T05:59:19.699Z,8.87
2022-07-28T06:01:46.693Z,8.10
2022-07-28T06:04:29.418Z,7.27
2022-07-28T06:06:57.057Z,7.73
2022-07-28T06:09:23.783Z,8.30
2022-07-28T06:11:50.904Z,7.07
2022-07-28T06:14:18.748Z,8.30
2022-07-28T06:16:50.990Z,8.80
2022-07-28T06:19:18.673Z,8.20
2022-07-28T06:21:45.573Z,8.40
2022-07-28T06:24:12.601Z,8.50
2022-07-28T06:26:44.367Z,8.20
2022-07-28T06:29:12.524Z,8.63
2022-07-28T06:31:39.517Z,8.43
2022-07-28T06:34:06.621Z,8.13
2022-07-28T06:36:33.609Z,8.97
2022-07-28T06:39:00.287Z,8.80
2022-07-28T06:41:27.625Z,8.70
2022-07-28T06:43:54.327Z,9.03
2022-07-28T06:46:21.192Z,8.97
2022-07-28T06:48:47.933Z,8.80
2022-07-28T06:51:19.050Z,8.80
2022-07-28T06:53:48.426Z,8.53
2022-07-28T06:56:15.758Z,8.63
2022-07-28T06:58:47.066Z,9.07
2022-07-28T07:01:15.072Z,9.23
2022-07-28T07:03:43.048Z,8.77
2022-07-28T07:06:11.096Z,9.00
2022-07-28T07:08:38.528Z,9.63
2022-07-28T07:11:05.335Z,8.33
2022-07-28T07:13:33.234Z,9.20
2022-07-28T07:16:00.379Z,8.87
2022-07-28T07:18:27.281Z,9.23
2022-07-28T07:20:54.842Z,8.80
2022-07-28T07:23:21.605Z,8.83
2022-07-28T07:25:48.558Z,9.80
2022-07-28T07:28:15.227Z,8.67
2022-07-28T07:30:41.971Z,9.20
2022-07-28T07:33:10.749Z,9.57
2022-07-28T07:35:38.151Z,8.83
2022-07-28T07:38:05.040Z,8.97
2022-07-28T07:40:32.673Z,9.13
2022-07-28T07:42:59.339Z,8.53
2022-07-28T07:45:26.161Z,8.97
2022-07-28T07:47:53.181Z,9.80
2022-07-28T07:50:19.959Z,8.50
2022-07-28T07:52:46.648Z,8.43
2022-07-28T07:55:13.371Z,9.60
2022-07-28T07:57:40.574Z,9.17
2022-07-28T08:00:07.898Z,8.70
2022-07-28T08:02:54.630Z,8.37
2022-07-28T08:05:21.382Z,9.20
2022-07-28T08:08:02.290Z,8.83
2022-07-28T08:10:29.095Z,8.80
2022-07-28T08:12:55.760Z,8.47
2022-07-28T08:15:22.588Z,8.23
2022-07-28T08:17:49.236Z,8.20
2022-07-28T08:20:15.927Z,10.20
2022-07-28T08:22:54.910Z,8.83
2022-07-28T08:25:22.551Z,9.40
2022-07-28T08:27:50.363Z,9.27
2022-07-28T08:30:23.086Z,9.57
2022-07-28T08:32:56.355Z,9.60
2022-07-28T08:35:33.976Z,9.40
2022-07-28T08:38:02.788Z,9.93
2022-07-28T08:40:32.350Z,10.00
2022-07-28T08:43:06.569Z,8.97
2022-07-28T08:45:37.038Z,10.20
2022-07-28T08:48:09.488Z,9.57
2022-07-28T08:50:38.464Z,10.53
2022-07-28T08:53:06.907Z,10.40
2022-07-28T08:55:36.008Z,10.03
2022-07-28T08:58:04.298Z,9.97
2022-07-28T09:00:31.189Z,10.13
2022-07-28T09:03:00.214Z,9.63
2022-07-28T09:05:27.731Z,10.57
2022-07-28T09:07:55.670Z,10.37
2022-07-28T09:10:23.421Z,9.90
2022-07-28T09:12:50.758Z,10.63
2022-07-28T09:15:17.429Z,9.07
2022-07-28T09:17:44.178Z,11.03
2022-07-28T09:20:11.996Z,10.30
2022-07-28T09:23:41.680Z,10.20
2022-07-28T09:26:12.595Z,10.53
2022-07-28T09:28:59.052Z,10.93
2022-07-28T09:31:28.242Z,10.63
2022-07-28T09:33:56.067Z,10.63
2022-07-28T09:36:23.305Z,10.90
2022-07-28T09:38:50.180Z,12.07
2022-07-28T09:41:19.762Z,11.63
2022-07-28T09:43:48.789Z,11.13
2022-07-28T09:46:23.372Z,10.10
2022-07-28T09:48:50.559Z,11.03
2022-07-28T09:51:19.699Z,10.87
2022-07-28T09:53:46.473Z,11.07
2022-07-28T09:56:13.514Z,11.43
2022-07-28T09:58:41.612Z,11.93
2022-07-28T10:01:12.861Z,11.60
2022-07-28T10:03:41.732Z,11.47
2022-07-28T10:06:13.974Z,12.70
2022-07-28T10:08:45.678Z,15.63
2022-07-28T10:11:14.288Z,12.47
2022-07-28T10:14:04.595Z,12.80
2022-07-28T10:16:33.768Z,12.93
2022-07-28T10:19:04.084Z,13.50
2022-07-28T10:21:33.747Z,13.33
2022-07-28T10:24:05.138Z,13.30
2022-07-28T10:26:33.396Z,13.20
2022-07-28T10:29:04.905Z,12.40
2022-07-28T10:31:43.515Z,11.50
2022-07-28T10:34:17.602Z,12.93
2022-07-28T10:36:45.060Z,12.40
2022-07-28T10:39:20.081Z,12.40
2022-07-28T10:41:47.189Z,13.00
2022-07-28T10:44:14.746Z,12.10
2022-07-28T10:46:43.413Z,11.43
2022-07-28T10:49:11.608Z,10.97
2022-07-28T10:52:01.155Z,11.17
2022-07-28T10:54:36.499Z,12.97
2022-07-28T10:57:06.383Z,11.40
2022-07-28T10:59:55.824Z,10.77
2022-07-28T11:02:56.956Z,10.77
2022-07-28T11:05:31.394Z,10.87
2022-07-28T11:08:01.303Z,11.17
2022-07-28T11:10:29.880Z,12.07
2022-07-28T11:12:58.788Z,11.83
2022-07-28T11:15:35.772Z,11.03
2022-07-28T11:18:06.853Z,10.10
2022-07-28T11:20:50.974Z,9.63
2022-07-28T11:23:46.268Z,9.60
2022-07-28T11:26:22.547Z,10.10
2022-07-28T11:29:03.728Z,9.93
2022-07-28T11:31:48.152Z,8.97
2022-07-28T11:34:22.970Z,9.83
2022-07-28T11:36:59.005Z,9.93
2022-07-28T11:39:27.420Z,9.70
2022-07-28T11:41:54.329Z,8.20
2022-07-28T11:44:31.765Z,9.38
2022-07-28T11:47:22.677Z,9.10
2022-07-28T11:50:12.944Z,9.53
2022-07-28T11:52:51.947Z,7.97
2022-07-28T11:55:19.249Z,8.88
2022-07-28T11:57:52.025Z,8.00
2022-07-28T12:00:22.406Z,7.78
2022-07-28T12:02:50.953Z,8.30
2022-07-28T12:05:17.956Z,7.75
2022-07-28T12:07:55.592Z,7.82
2022-07-28T12:10:53.185Z,7.43
2022-07-28T12:13:25.751Z,8.00
2022-07-28T12:15:53.055Z,7.72
2022-07-28T12:18:19.763Z,7.78
2022-07-28T12:20:48.406Z,9.05
2022-07-28T12:23:15.475Z,8.30
2022-07-28T12:25:49.296Z,8.88
2022-07-28T12:28:22.689Z,7.95
2022-07-28T12:30:51.977Z,8.10
2022-07-28T12:33:29.166Z,8.68
2022-07-28T12:35:59.361Z,8.38
2022-07-28T12:38:28.782Z,8.68
2022-07-28T12:40:55.672Z,8.95
2022-07-28T12:43:30.453Z,9.85
2022-07-28T12:45:57.473Z,8.65
2022-07-28T12:48:24.238Z,8.73
2022-07-28T12:50:53.704Z,8.75
2022-07-28T12:53:22.851Z,8.48
2022-07-28T12:55:59.093Z,9.38
2022-07-28T12:58:27.599Z,8.25
2022-07-28T13:00:55.680Z,9.45
2022-07-28T13:03:27.955Z,9.18
2022-07-28T13:06:02.331Z,9.75
2022-07-28T13:08:37.861Z,8.80
2022-07-28T13:44:32.897Z,8.25
2022-07-28T13:47:00.789Z,7.90
2022-07-28T13:49:29.062Z,8.18
2022-07-28T13:51:55.918Z,8.70
2022-07-28T13:54:24.061Z,7.75
2022-07-28T13:56:50.759Z,8.98
2022-07-28T13:59:17.598Z,7.82
2022-07-28T14:01:44.491Z,7.82
2022-07-28T14:04:17.436Z,7.55
2022-07-28T14:06:45.458Z,7.25
2022-07-28T14:09:13.014Z,6.93
2022-07-28T14:11:49.908Z,8.00
2022-07-28T14:14:25.325Z,6.72
2022-07-28T14:16:54.324Z,7.05
2022-07-28T14:19:38.356Z,7.00
2022-07-28T14:22:12.879Z,7.10
2022-07-28T14:24:41.954Z,7.63
2022-07-28T14:27:08.610Z,7.05
2022-07-28T14:29:37.405Z,7.17
2022-07-28T14:32:04.322Z,8.02
2022-07-28T14:34:30.960Z,7.57
2022-07-28T14:36:57.669Z,8.07
2022-07-28T14:39:24.350Z,7.60
2022-07-28T14:41:51.047Z,6.93
2022-07-28T14:44:23.841Z,8.07
2022-07-28T14:46:51.570Z,7.50
2022-07-28T14:49:18.407Z,7.60
2022-07-28T14:51:45.119Z,7.83
2022-07-28T14:54:12.404Z,7.90
2022-07-28T14:56:39.273Z,7.97
2022-07-28T14:59:06.400Z,7.57
2022-07-28T15:01:36.475Z,7.30
2022-07-28T15:04:04.220Z,7.10
2022-07-28T15:06:31.144Z,6.80
2022-07-28T15:08:58.480Z,6.87
2022-07-28T15:11:25.729Z,6.97
2022-07-28T15:13:52.352Z,7.77
2022-07-28T15:16:19.155Z,6.57
2022-07-28T15:18:45.884Z,6.28
2022-07-28T15:21:16.658Z,5.83
2022-07-28T15:23:44.184Z,6.23
2022-07-28T15:26:11.659Z,6.70
2022-07-28T15:28:38.690Z,5.73
2022-07-28T15:31:08.515Z,6.00
2022-07-28T15:33:42.497Z,6.53
2022-07-28T15:36:14.718Z,6.80
2022-07-28T15:38:41.661Z,6.33
2022-07-28T15:41:14.930Z,6.00
2022-07-28T15:43:41.790Z,6.87
2022-07-28T15:46:11.753Z,7.40
2022-07-28T15:48:40.496Z,6.97
2022-07-28T15:51:08.213Z,7.13
2022-07-28T15:53:36.800Z,7.20
2022-07-28T15:56:04.669Z,6.70
2022-07-28T15:58:31.482Z,6.27
2022-07-28T16:01:01.007Z,6.50
2022-07-28T16:03:29.519Z,6.93
2022-07-28T16:05:56.661Z,6.33
2022-07-28T16:08:23.525Z,6.87
2022-07-28T16:10:52.618Z,7.13
2022-07-28T16:13:31.213Z,7.47
2022-07-28T16:16:12.932Z,7.73
2022-07-28T16:18:42.913Z,7.00
2022-07-28T16:21:11.030Z,7.27
2022-07-28T16:23:37.818Z,6.70
2022-07-28T16:26:07.911Z,7.73
2022-07-28T16:28:35.334Z,8.37
2022-07-28T16:31:02.135Z,8.47
2022-07-28T16:33:33.670Z,7.33
2022-07-28T16:36:01.381Z,10.37
2022-07-28T16:38:28.067Z,24.17
2022-07-28T16:40:54.718Z,17.13
2022-07-28T16:43:21.404Z,14.27
2022-07-28T16:45:48.133Z,9.47
2022-07-28T16:48:15.331Z,15.60
2022-07-28T16:50:45.858Z,10.03
2022-07-28T16:53:13.847Z,8.63
2022-07-28T16:55:42.325Z,15.00
2022-07-28T16:58:09.201Z,13.23
2022-07-28T17:00:36.104Z,20.33
2022-07-28T17:03:02.747Z,29.00
2022-07-28T17:05:29.420Z,25.20
2022-07-28T17:07:56.051Z,12.83
2022-07-28T17:10:27.248Z,10.60
2022-07-28T17:12:54.712Z,10.57
2022-07-28T17:15:22.584Z,8.73
2022-07-28T17:17:50.916Z,11.03
2022-07-28T17:20:17.697Z,10.97
2022-07-28T17:22:44.908Z,8.43
2022-07-28T17:25:35.578Z,8.37
2022-07-28T17:27:58.707Z,6.67
2022-07-28T17:30:26.104Z,7.03
2022-07-28T17:32:58.129Z,6.17
2022-07-28T17:35:34.111Z,6.33
2022-07-28T17:38:05.268Z,5.93
2022-07-28T17:40:31.939Z,5.67
2022-07-28T17:42:58.578Z,6.07
2022-07-28T17:45:25.373Z,6.67
2022-07-28T17:47:52.188Z,6.47
2022-07-28T17:50:18.978Z,6.33
2022-07-28T17:52:46.428Z,6.43
2022-07-28T17:55:35.688Z,6.60
2022-07-28T17:58:28.161Z,5.60
2022-07-28T18:01:10.946Z,6.30
2022-07-28T18:03:58.832Z,6.37
2022-07-28T18:06:35.728Z,6.83
2022-07-28T18:09:06.522Z,5.43
2022-07-28T18:11:36.909Z,5.67
2022-07-28T18:14:22.432Z,3.50
2022-07-28T18:16:49.094Z,2.80
2022-07-28T18:19:15.741Z,2.57
2022-07-28T18:21:43.696Z,3.40
2022-07-28T18:24:10.324Z,3.13
2022-07-28T18:26:36.921Z,3.20
2022-07-28T18:29:03.636Z,3.13
2022-07-28T18:31:30.510Z,2.90
2022-07-28T18:33:57.254Z,3.50
2022-07-28T18:36:23.946Z,3.63
2022-07-28T18:38:50.599Z,3.10
2022-07-28T18:41:17.393Z,2.90
2022-07-28T18:43:44.043Z,4.03
2022-07-28T18:46:10.796Z,4.20
2022-07-28T18:48:38.194Z,4.07
2022-07-28T18:51:04.962Z,4.47
2022-07-28T18:53:31.632Z,4.80
2022-07-28T18:55:58.340Z,5.00
2022-07-28T18:58:25.667Z,4.93
2022-07-28T19:00:52.512Z,4.07
2022-07-28T19:03:19.263Z,3.33
2022-07-28T19:05:46.517Z,2.97
2022-07-28T19:08:13.429Z,3.10
2022-07-28T19:10:40.274Z,2.77
2022-07-28T19:13:09.146Z,2.43
2022-07-28T19:15:40.741Z,2.40
2022-07-28T19:18:11.529Z,2.97
2022-07-28T19:20:44.246Z,3.00
2022-07-28T19:23:11.022Z,3.80
2022-07-28T19:25:39.346Z,4.13
2022-07-28T19:28:06.432Z,4.70
2022-07-28T19:30:33.614Z,5.07
2022-07-28T19:33:00.415Z,4.77
2022-07-28T19:35:27.257Z,4.83
2022-07-28T19:37:55.481Z,5.40
2022-07-28T19:40:22.369Z,4.93
2022-07-28T19:42:49.003Z,5.30
2022-07-28T19:45:16.907Z,5.23
2022-07-28T19:47:43.644Z,5.23
2022-07-28T19:50:10.388Z,5.33
2022-07-28T19:52:39.930Z,4.87
2022-07-28T19:55:07.965Z,4.23
2022-07-28T19:57:35.627Z,5.37
2022-07-28T20:00:02.422Z,5.70
2022-07-28T20:02:29.447Z,5.13
2022-07-28T20:04:56.205Z,5.43
2022-07-28T20:07:23.973Z,5.17
2022-07-28T20:09:50.797Z,5.60
2022-07-28T20:12:17.930Z,6.17
2022-07-28T20:14:44.674Z,6.30
2022-07-28T20:17:24.401Z,6.03
2022-07-28T20:19:58.031Z,6.00
2022-07-28T20:22:25.254Z,6.97
2022-07-28T20:24:52.146Z,6.77
2022-07-28T20:27:18.841Z,6.90
2022-07-28T20:29:46.014Z,6.00
2022-07-28T20:32:12.704Z,6.73
2022-07-28T20:34:39.833Z,6.57
2022-07-28T20:37:06.490Z,6.80
2022-07-28T20:39:53.151Z,5.93
2022-07-28T20:42:19.845Z,6.00
2022-07-28T20:44:48.917Z,5.63
2022-07-28T20:47:18.866Z,5.10
2022-07-28T20:49:45.531Z,5.30
2022-07-28T20:52:12.500Z,5.20
2022-07-28T20:54:39.359Z,4.70
2022-07-28T20:57:06.108Z,4.17
2022-07-28T20:59:32.928Z,5.10
2022-07-28T21:01:59.715Z,5.03
2022-07-28T21:04:26.639Z,4.80
2022-07-28T21:07:00.836Z,4.83
2022-07-28T21:09:29.151Z,4.30
2022-07-28T21:11:56.146Z,4.83
2022-07-28T21:14:22.813Z,5.27
2022-07-28T21:16:49.790Z,5.23
2022-07-28T21:19:16.636Z,4.47
2022-07-28T21:21:43.326Z,5.07
2022-07-28T21:24:10.019Z,4.40
2022-07-28T21:26:36.706Z,4.83
2022-07-28T21:29:12.800Z,4.90
2022-07-28T21:32:02.172Z,4.87
2022-07-28T21:34:31.040Z,5.27
2022-07-28T21:36:58.369Z,4.97
2022-07-28T21:39:25.574Z,4.70
2022-07-28T21:41:52.459Z,4.30
2022-07-28T21:44:19.311Z,4.73
2022-07-28T21:46:45.963Z,4.50
2022-07-28T21:49:12.936Z,5.67
2022-07-28T21:51:41.157Z,5.30
2022-07-28T21:54:11.155Z,5.57
2022-07-28T21:56:37.875Z,5.23
2022-07-28T21:59:04.725Z,5.03
2022-07-28T22:01:31.578Z,5.17
2022-07-28T22:03:58.393Z,5.17
2022-07-28T22:06:25.087Z,4.60
2022-07-28T22:08:54.063Z,4.30
2022-07-28T22:11:22.624Z,4.60
2022-07-28T22:13:49.741Z,5.07
2022-07-28T22:16:16.609Z,5.40
2022-07-28T22:18:43.342Z,4.63
2022-07-28T22:21:09.991Z,5.30
2022-07-28T22:23:36.642Z,4.17
2022-07-28T22:26:03.747Z,4.80
2022-07-28T22:28:30.834Z,5.20
2022-07-28T22:30:59.033Z,5.03
2022-07-28T22:33:39.098Z,5.07
2022-07-28T22:36:07.738Z,5.77
2022-07-28T22:38:34.556Z,5.30
2022-07-28T22:41:01.259Z,5.10
2022-07-28T22:43:28.016Z,5.23
2022-07-28T22:45:54.705Z,6.07
2022-07-28T22:48:21.412Z,5.90
2022-07-28T22:50:48.137Z,6.50
2022-07-28T22:53:14.898Z,5.83
2022-07-28T22:58:25.737Z,5.40
2022-07-28T23:00:52.580Z,6.23
2022-07-28T23:03:19.512Z,6.10
2022-07-28T23:05:46.503Z,5.50
2022-07-28T23:08:13.448Z,5.00
2022-07-28T23:10:40.271Z,5.03
2022-07-28T23:13:07.219Z,5.03
2022-07-28T23:15:40.195Z,4.90
2022-07-28T23:18:11.657Z,4.10
2022-07-28T23:20:39.578Z,5.00
2022-07-28T23:23:07.260Z,4.67
2022-07-28T23:25:37.080Z,5.23
2022-07-28T23:28:03.955Z,4.50
2022-07-28T23:30:30.750Z,5.03
2022-07-28T23:32:57.718Z,4.30
2022-07-28T23:35:24.686Z,4.60
2022-07-28T23:37:51.472Z,5.17
2022-07-28T23:40:18.237Z,4.97
2022-07-28T23:42:45.004Z,4.80
2022-07-28T23:45:11.943Z,4.70
2022-07-28T23:47:38.895Z,4.80
2022-07-28T23:50:06.375Z,5.30
2022-07-28T23:52:33.348Z,5.23
2022-07-28T23:55:00.148Z,4.83
2022-07-28T23:57:30.764Z,4.93
2022-07-28T23:59:59.319Z,4.23
